sensor_id;sensor_type;location;lat;lon;timestamp;temperature;humidity
52387;DHT22;38317;53.084;6.960;2023-05-10T00:00:13;14.00;99.90
52387;DHT22;38317;53.084;6.960;2023-05-10T00:02:39;13.80;99.90
52387;DHT22;38317;53.084;6.960;2023-05-10T00:05:06;13.80;99.90
52387;DHT22;38317;53.084;6.960;2023-05-10T00:07:32;13.80;99.90
52387;DHT22;38317;53.084;6.960;2023-05-10T00:09:58;13.80;99.90
52387;DHT22;38317;53.084;6.960;2023-05-10T00:12:23;13.80;99.90
52387;DHT22;38317;53.084;6.960;2023-05-10T00:14:49;13.80;99.90
52387;DHT22;38317;53.084;6.960;2023-05-10T00:17:15;13.80;99.90
52387;DHT22;38317;53.084;6.960;2023-05-10T00:19:40;13.80;99.90
52387;DHT22;38317;53.084;6.960;2023-05-10T00:22:06;13.80;99.90
52387;DHT22;38317;53.084;6.960;2023-05-10T00:24:32;13.80;99.90
52387;DHT22;38317;53.084;6.960;2023-05-10T00:26:57;13.70;99.90
52387;DHT22;38317;53.084;6.960;2023-05-10T00:29:23;13.70;99.90
52387;DHT22;38317;53.084;6.960;2023-05-10T00:31:49;13.60;99.90
52387;DHT22;38317;53.084;6.960;2023-05-10T00:34:15;13.60;99.90
52387;DHT22;38317;53.084;6.960;2023-05-10T00:36:41;13.50;99.90
52387;DHT22;38317;53.084;6.960;2023-05-10T00:39:06;13.40;99.90
52387;DHT22;38317;53.084;6.960;2023-05-10T00:41:33;13.40;99.90
52387;DHT22;38317;53.084;6.960;2023-05-10T00:43:59;13.30;99.90
52387;DHT22;38317;53.084;6.960;2023-05-10T00:46:25;13.30;99.90
52387;DHT22;38317;53.084;6.960;2023-05-10T00:48:51;13.30;99.90
52387;DHT22;38317;53.084;6.960;2023-05-10T00:51:18;13.20;99.90
52387;DHT22;38317;53.084;6.960;2023-05-10T00:53:45;13.20;99.90
52387;DHT22;38317;53.084;6.960;2023-05-10T00:56:12;13.20;99.90
52387;DHT22;38317;53.084;6.960;2023-05-10T00:58:38;13.10;99.90
52387;DHT22;38317;53.084;6.960;2023-05-10T01:01:05;13.10;99.90
52387;DHT22;38317;53.084;6.960;2023-05-10T01:03:32;13.10;99.90
52387;DHT22;38317;53.084;6.960;2023-05-10T01:05:58;13.10;99.90
52387;DHT22;38317;53.084;6.960;2023-05-10T01:08:24;13.10;99.90
52387;DHT22;38317;53.084;6.960;2023-05-10T01:10:51;13.00;99.90
52387;DHT22;38317;53.084;6.960;2023-05-10T01:13:39;13.00;99.90
52387;DHT22;38317;53.084;6.960;2023-05-10T01:16:06;13.00;99.90
52387;DHT22;38317;53.084;6.960;2023-05-10T01:18:40;13.00;99.90
52387;DHT22;38317;53.084;6.960;2023-05-10T01:21:23;13.00;99.90
52387;DHT22;38317;53.084;6.960;2023-05-10T01:32:55;13.00;99.90
52387;DHT22;38317;53.084;6.960;2023-05-10T01:35:31;13.00;99.90
52387;DHT22;38317;53.084;6.960;2023-05-10T01:38:11;13.00;99.90
52387;DHT22;38317;53.084;6.960;2023-05-10T01:41:16;12.90;99.90
52387;DHT22;38317;53.084;6.960;2023-05-10T01:44:05;12.90;99.90
52387;DHT22;38317;53.084;6.960;2023-05-10T01:46:39;12.90;99.90
52387;DHT22;38317;53.084;6.960;2023-05-10T01:49:10;12.90;99.90
52387;DHT22;38317;53.084;6.960;2023-05-10T01:51:48;12.90;99.90
52387;DHT22;38317;53.084;6.960;2023-05-10T01:54:19;12.90;99.90
52387;DHT22;38317;53.084;6.960;2023-05-10T01:56:48;12.90;99.90
52387;DHT22;38317;53.084;6.960;2023-05-10T01:59:18;12.90;99.90
52387;DHT22;38317;53.084;6.960;2023-05-10T02:01:46;12.90;99.90
52387;DHT22;38317;53.084;6.960;2023-05-10T02:04:23;12.90;99.90
52387;DHT22;38317;53.084;6.960;2023-05-10T02:06:51;12.90;99.90
52387;DHT22;38317;53.084;6.960;2023-05-10T02:09:20;12.90;99.90
52387;DHT22;38317;53.084;6.960;2023-05-10T02:11:48;12.90;99.90
52387;DHT22;38317;53.084;6.960;2023-05-10T02:14:15;12.90;99.90
52387;DHT22;38317;53.084;6.960;2023-05-10T02:16:43;12.90;99.90
52387;DHT22;38317;53.084;6.960;2023-05-10T02:19:10;12.90;99.90
52387;DHT22;38317;53.084;6.960;2023-05-10T02:21:39;12.90;99.90
52387;DHT22;38317;53.084;6.960;2023-05-10T02:24:05;12.90;99.90
52387;DHT22;38317;53.084;6.960;2023-05-10T02:26:34;13.00;99.90
52387;DHT22;38317;53.084;6.960;2023-05-10T02:29:02;13.00;99.90
52387;DHT22;38317;53.084;6.960;2023-05-10T02:31:30;13.00;99.90
52387;DHT22;38317;53.084;6.960;2023-05-10T02:33:58;12.90;99.90
52387;DHT22;38317;53.084;6.960;2023-05-10T02:36:25;12.90;99.90
52387;DHT22;38317;53.084;6.960;2023-05-10T02:38:53;12.90;99.90
52387;DHT22;38317;53.084;6.960;2023-05-10T02:41:20;12.90;99.90
52387;DHT22;38317;53.084;6.960;2023-05-10T02:43:50;12.90;99.90
52387;DHT22;38317;53.084;6.960;2023-05-10T02:46:17;12.90;99.90
52387;DHT22;38317;53.084;6.960;2023-05-10T02:48:43;12.80;99.90
52387;DHT22;38317;53.084;6.960;2023-05-10T02:51:12;12.90;99.90
52387;DHT22;38317;53.084;6.960;2023-05-10T02:53:44;12.80;99.90
52387;DHT22;38317;53.084;6.960;2023-05-10T02:56:33;12.80;99.90
52387;DHT22;38317;53.084;6.960;2023-05-10T02:58:59;12.80;99.90
52387;DHT22;38317;53.084;6.960;2023-05-10T03:01:25;12.80;99.90
52387;DHT22;38317;53.084;6.960;2023-05-10T03:03:51;12.80;99.90
52387;DHT22;38317;53.084;6.960;2023-05-10T03:06:17;12.70;99.90
52387;DHT22;38317;53.084;6.960;2023-05-10T03:08:44;12.70;99.90
52387;DHT22;38317;53.084;6.960;2023-05-10T03:11:32;12.70;99.90
52387;DHT22;38317;53.084;6.960;2023-05-10T03:17:00;12.70;99.90
52387;DHT22;38317;53.084;6.960;2023-05-10T03:19:30;12.70;99.90
52387;DHT22;38317;53.084;6.960;2023-05-10T03:21:59;12.70;99.90
52387;DHT22;38317;53.084;6.960;2023-05-10T03:24:30;12.70;99.90
52387;DHT22;38317;53.084;6.960;2023-05-10T03:26:59;12.70;99.90
52387;DHT22;38317;53.084;6.960;2023-05-10T03:29:28;12.70;99.90
52387;DHT22;38317;53.084;6.960;2023-05-10T03:31:55;12.70;99.90
52387;DHT22;38317;53.084;6.960;2023-05-10T03:34:24;12.70;99.90
52387;DHT22;38317;53.084;6.960;2023-05-10T03:36:50;12.70;99.90
52387;DHT22;38317;53.084;6.960;2023-05-10T03:39:15;12.70;99.90
52387;DHT22;38317;53.084;6.960;2023-05-10T03:41:42;12.70;99.90
52387;DHT22;38317;53.084;6.960;2023-05-10T03:44:10;12.70;99.90
52387;DHT22;38317;53.084;6.960;2023-05-10T03:46:36;12.80;99.90
52387;DHT22;38317;53.084;6.960;2023-05-10T03:49:02;12.60;99.90
52387;DHT22;38317;53.084;6.960;2023-05-10T03:51:28;12.70;99.90
52387;DHT22;38317;53.084;6.960;2023-05-10T03:53:54;12.70;99.90
52387;DHT22;38317;53.084;6.960;2023-05-10T03:56:20;12.70;99.90
52387;DHT22;38317;53.084;6.960;2023-05-10T03:58:46;12.60;99.90
52387;DHT22;38317;53.084;6.960;2023-05-10T04:01:12;12.90;99.90
52387;DHT22;38317;53.084;6.960;2023-05-10T04:03:38;12.60;99.90
52387;DHT22;38317;53.084;6.960;2023-05-10T04:06:04;12.60;99.90
52387;DHT22;38317;53.084;6.960;2023-05-10T04:08:31;12.60;99.90
52387;DHT22;38317;53.084;6.960;2023-05-10T04:11:10;12.60;99.90
52387;DHT22;38317;53.084;6.960;2023-05-10T04:13:37;12.60;99.90
52387;DHT22;38317;53.084;6.960;2023-05-10T04:16:04;12.60;99.90
52387;DHT22;38317;53.084;6.960;2023-05-10T04:18:30;12.60;99.90
52387;DHT22;38317;53.084;6.960;2023-05-10T04:20:56;12.60;99.90
52387;DHT22;38317;53.084;6.960;2023-05-10T04:23:21;12.60;99.90
52387;DHT22;38317;53.084;6.960;2023-05-10T04:25:47;12.60;99.90
52387;DHT22;38317;53.084;6.960;2023-05-10T04:28:13;12.60;99.90
52387;DHT22;38317;53.084;6.960;2023-05-10T04:30:38;12.60;99.90
52387;DHT22;38317;53.084;6.960;2023-05-10T04:33:04;12.50;99.90
52387;DHT22;38317;53.084;6.960;2023-05-10T04:35:30;12.60;99.90
52387;DHT22;38317;53.084;6.960;2023-05-10T04:37:55;12.60;99.90
52387;DHT22;38317;53.084;6.960;2023-05-10T04:40:21;12.60;99.90
52387;DHT22;38317;53.084;6.960;2023-05-10T04:42:47;12.60;99.90
52387;DHT22;38317;53.084;6.960;2023-05-10T04:45:13;12.50;99.90
52387;DHT22;38317;53.084;6.960;2023-05-10T04:47:40;12.60;99.90
52387;DHT22;38317;53.084;6.960;2023-05-10T04:50:06;12.60;99.90
52387;DHT22;38317;53.084;6.960;2023-05-10T04:52:32;12.60;99.90
52387;DHT22;38317;53.084;6.960;2023-05-10T04:54:58;12.60;99.90
52387;DHT22;38317;53.084;6.960;2023-05-10T04:57:24;12.70;99.90
52387;DHT22;38317;53.084;6.960;2023-05-10T04:59:50;12.60;99.90
52387;DHT22;38317;53.084;6.960;2023-05-10T05:02:15;12.60;99.90
52387;DHT22;38317;53.084;6.960;2023-05-10T05:04:41;12.60;99.90
52387;DHT22;38317;53.084;6.960;2023-05-10T05:07:07;12.60;99.90
52387;DHT22;38317;53.084;6.960;2023-05-10T05:09:32;12.60;99.90
52387;DHT22;38317;53.084;6.960;2023-05-10T05:11:58;12.60;99.90
52387;DHT22;38317;53.084;6.960;2023-05-10T05:14:24;12.50;99.90
52387;DHT22;38317;53.084;6.960;2023-05-10T05:16:52;12.60;99.90
52387;DHT22;38317;53.084;6.960;2023-05-10T05:19:18;12.50;99.90
52387;DHT22;38317;53.084;6.960;2023-05-10T05:21:44;12.60;99.90
52387;DHT22;38317;53.084;6.960;2023-05-10T05:24:10;12.50;99.90
52387;DHT22;38317;53.084;6.960;2023-05-10T05:26:38;12.50;99.90
52387;DHT22;38317;53.084;6.960;2023-05-10T05:29:04;12.50;99.90
52387;DHT22;38317;53.084;6.960;2023-05-10T05:31:29;12.60;99.90
52387;DHT22;38317;53.084;6.960;2023-05-10T05:33:55;12.50;99.90
52387;DHT22;38317;53.084;6.960;2023-05-10T05:36:21;12.50;99.90
52387;DHT22;38317;53.084;6.960;2023-05-10T05:38:47;12.50;99.90
52387;DHT22;38317;53.084;6.960;2023-05-10T05:41:13;12.50;99.90
52387;DHT22;38317;53.084;6.960;2023-05-10T05:43:38;12.50;99.90
52387;DHT22;38317;53.084;6.960;2023-05-10T05:46:04;12.50;99.90
52387;DHT22;38317;53.084;6.960;2023-05-10T05:48:30;12.50;99.90
52387;DHT22;38317;53.084;6.960;2023-05-10T05:50:56;12.50;99.90
52387;DHT22;38317;53.084;6.960;2023-05-10T05:53:23;12.50;99.90
52387;DHT22;38317;53.084;6.960;2023-05-10T05:58:19;12.40;99.90
52387;DHT22;38317;53.084;6.960;2023-05-10T06:00:45;12.40;99.90
52387;DHT22;38317;53.084;6.960;2023-05-10T06:03:10;12.40;99.90
52387;DHT22;38317;53.084;6.960;2023-05-10T06:05:36;12.40;99.90
52387;DHT22;38317;53.084;6.960;2023-05-10T06:08:02;12.50;99.90
52387;DHT22;38317;53.084;6.960;2023-05-10T06:10:27;12.40;99.90
52387;DHT22;38317;53.084;6.960;2023-05-10T06:12:53;12.40;99.90
52387;DHT22;38317;53.084;6.960;2023-05-10T06:15:19;12.40;99.90
52387;DHT22;38317;53.084;6.960;2023-05-10T06:17:45;12.40;99.90
52387;DHT22;38317;53.084;6.960;2023-05-10T06:20:12;12.50;99.90
52387;DHT22;38317;53.084;6.960;2023-05-10T06:22:38;12.50;99.90
52387;DHT22;38317;53.084;6.960;2023-05-10T06:25:04;12.50;99.90
52387;DHT22;38317;53.084;6.960;2023-05-10T06:27:30;12.40;99.90
52387;DHT22;38317;53.084;6.960;2023-05-10T06:29:56;12.40;99.90
52387;DHT22;38317;53.084;6.960;2023-05-10T06:32:21;12.40;99.90
52387;DHT22;38317;53.084;6.960;2023-05-10T06:34:47;12.40;99.90
52387;DHT22;38317;53.084;6.960;2023-05-10T06:37:13;12.40;99.90
52387;DHT22;38317;53.084;6.960;2023-05-10T06:39:38;12.50;99.90
52387;DHT22;38317;53.084;6.960;2023-05-10T06:42:04;12.50;99.90
52387;DHT22;38317;53.084;6.960;2023-05-10T06:44:30;12.50;99.90
52387;DHT22;38317;53.084;6.960;2023-05-10T06:46:56;12.40;99.90
52387;DHT22;38317;53.084;6.960;2023-05-10T06:49:21;12.50;99.90
52387;DHT22;38317;53.084;6.960;2023-05-10T06:51:47;12.40;99.90
52387;DHT22;38317;53.084;6.960;2023-05-10T06:54:13;12.40;99.90
52387;DHT22;38317;53.084;6.960;2023-05-10T06:56:39;12.40;99.90
52387;DHT22;38317;53.084;6.960;2023-05-10T06:59:05;12.50;99.90
52387;DHT22;38317;53.084;6.960;2023-05-10T07:01:31;12.50;99.90
52387;DHT22;38317;53.084;6.960;2023-05-10T07:03:56;12.40;99.90
52387;DHT22;38317;53.084;6.960;2023-05-10T07:06:22;12.40;99.90
52387;DHT22;38317;53.084;6.960;2023-05-10T07:08:48;12.50;99.90
52387;DHT22;38317;53.084;6.960;2023-05-10T07:11:13;12.50;99.90
52387;DHT22;38317;53.084;6.960;2023-05-10T07:13:39;12.50;99.90
52387;DHT22;38317;53.084;6.960;2023-05-10T07:16:07;12.50;99.90
52387;DHT22;38317;53.084;6.960;2023-05-10T07:18:33;12.50;99.90
52387;DHT22;38317;53.084;6.960;2023-05-10T07:20:59;12.50;99.90
52387;DHT22;38317;53.084;6.960;2023-05-10T07:23:24;12.50;99.90
52387;DHT22;38317;53.084;6.960;2023-05-10T07:25:51;12.50;99.90
52387;DHT22;38317;53.084;6.960;2023-05-10T07:28:17;12.40;99.90
52387;DHT22;38317;53.084;6.960;2023-05-10T07:30:43;12.50;99.90
52387;DHT22;38317;53.084;6.960;2023-05-10T07:33:10;12.40;99.90
52387;DHT22;38317;53.084;6.960;2023-05-10T07:35:36;12.50;99.90
52387;DHT22;38317;53.084;6.960;2023-05-10T07:38:02;12.50;99.90
52387;DHT22;38317;53.084;6.960;2023-05-10T07:40:29;12.40;99.90
52387;DHT22;38317;53.084;6.960;2023-05-10T07:42:55;12.50;99.90
52387;DHT22;38317;53.084;6.960;2023-05-10T07:45:20;12.50;99.90
52387;DHT22;38317;53.084;6.960;2023-05-10T07:47:46;12.50;99.90
52387;DHT22;38317;53.084;6.960;2023-05-10T07:50:12;12.50;99.90
52387;DHT22;38317;53.084;6.960;2023-05-10T07:52:38;12.50;99.90
52387;DHT22;38317;53.084;6.960;2023-05-10T07:55:04;12.50;99.90
52387;DHT22;38317;53.084;6.960;2023-05-10T07:57:30;12.50;99.90
52387;DHT22;38317;53.084;6.960;2023-05-10T07:59:56;12.60;99.90
52387;DHT22;38317;53.084;6.960;2023-05-10T08:02:21;12.60;99.90
52387;DHT22;38317;53.084;6.960;2023-05-10T08:04:47;12.60;99.90
52387;DHT22;38317;53.084;6.960;2023-05-10T08:07:13;12.60;99.90
52387;DHT22;38317;53.084;6.960;2023-05-10T08:09:39;12.60;99.90
52387;DHT22;38317;53.084;6.960;2023-05-10T08:12:05;13.10;99.90
52387;DHT22;38317;53.084;6.960;2023-05-10T08:14:30;12.70;99.90
52387;DHT22;38317;53.084;6.960;2023-05-10T08:16:56;12.70;99.90
52387;DHT22;38317;53.084;6.960;2023-05-10T08:19:22;12.70;99.90
52387;DHT22;38317;53.084;6.960;2023-05-10T08:21:48;12.70;99.90
52387;DHT22;38317;53.084;6.960;2023-05-10T08:24:14;12.70;99.90
52387;DHT22;38317;53.084;6.960;2023-05-10T08:26:40;12.70;99.90
52387;DHT22;38317;53.084;6.960;2023-05-10T08:29:06;13.10;99.90
52387;DHT22;38317;53.084;6.960;2023-05-10T08:31:31;12.70;99.90
52387;DHT22;38317;53.084;6.960;2023-05-10T08:33:57;12.80;99.90
52387;DHT22;38317;53.084;6.960;2023-05-10T08:36:23;12.80;99.90
52387;DHT22;38317;53.084;6.960;2023-05-10T08:38:53;12.70;99.90
52387;DHT22;38317;53.084;6.960;2023-05-10T08:41:20;12.80;99.90
52387;DHT22;38317;53.084;6.960;2023-05-10T08:43:47;12.70;99.90
52387;DHT22;38317;53.084;6.960;2023-05-10T08:46:17;12.70;99.90
52387;DHT22;38317;53.084;6.960;2023-05-10T08:48:44;12.70;99.90
52387;DHT22;38317;53.084;6.960;2023-05-10T08:51:13;12.70;99.90
52387;DHT22;38317;53.084;6.960;2023-05-10T08:53:39;12.70;99.90
52387;DHT22;38317;53.084;6.960;2023-05-10T08:56:06;12.70;99.90
52387;DHT22;38317;53.084;6.960;2023-05-10T08:58:32;12.70;99.90
52387;DHT22;38317;53.084;6.960;2023-05-10T09:00:58;12.70;99.90
52387;DHT22;38317;53.084;6.960;2023-05-10T09:03:24;12.70;99.90
52387;DHT22;38317;53.084;6.960;2023-05-10T09:05:50;12.80;99.90
52387;DHT22;38317;53.084;6.960;2023-05-10T09:08:17;12.80;99.90
52387;DHT22;38317;53.084;6.960;2023-05-10T09:10:46;12.80;99.90
52387;DHT22;38317;53.084;6.960;2023-05-10T09:13:14;12.90;99.90
52387;DHT22;38317;53.084;6.960;2023-05-10T09:15:44;12.90;99.90
52387;DHT22;38317;53.084;6.960;2023-05-10T09:18:11;13.00;99.90
52387;DHT22;38317;53.084;6.960;2023-05-10T09:20:36;13.00;99.90
52387;DHT22;38317;53.084;6.960;2023-05-10T09:23:02;13.30;99.90
52387;DHT22;38317;53.084;6.960;2023-05-10T09:25:28;13.10;99.90
52387;DHT22;38317;53.084;6.960;2023-05-10T09:27:54;13.10;99.90
52387;DHT22;38317;53.084;6.960;2023-05-10T09:30:26;13.10;99.90
52387;DHT22;38317;53.084;6.960;2023-05-10T09:32:52;13.00;99.90
52387;DHT22;38317;53.084;6.960;2023-05-10T09:35:23;13.00;99.90
52387;DHT22;38317;53.084;6.960;2023-05-10T09:37:51;13.00;99.90
52387;DHT22;38317;53.084;6.960;2023-05-10T09:40:24;13.00;99.90
52387;DHT22;38317;53.084;6.960;2023-05-10T09:42:57;13.00;99.90
52387;DHT22;38317;53.084;6.960;2023-05-10T09:45:24;12.90;99.90
52387;DHT22;38317;53.084;6.960;2023-05-10T09:47:51;12.90;99.90
52387;DHT22;38317;53.084;6.960;2023-05-10T09:50:17;12.90;99.90
52387;DHT22;38317;53.084;6.960;2023-05-10T09:52:51;12.90;99.90
52387;DHT22;38317;53.084;6.960;2023-05-10T09:55:19;13.00;99.90
52387;DHT22;38317;53.084;6.960;2023-05-10T09:57:46;13.00;99.90
52387;DHT22;38317;53.084;6.960;2023-05-10T10:00:20;13.00;99.90
52387;DHT22;38317;53.084;6.960;2023-05-10T10:02:47;13.10;99.90
52387;DHT22;38317;53.084;6.960;2023-05-10T10:05:13;13.10;99.90
52387;DHT22;38317;53.084;6.960;2023-05-10T10:07:39;13.10;99.90
52387;DHT22;38317;53.084;6.960;2023-05-10T10:10:06;13.10;99.90
52387;DHT22;38317;53.084;6.960;2023-05-10T10:12:37;13.20;99.90
52387;DHT22;38317;53.084;6.960;2023-05-10T10:15:03;13.30;99.90
52387;DHT22;38317;53.084;6.960;2023-05-10T10:17:30;13.40;99.90
52387;DHT22;38317;53.084;6.960;2023-05-10T10:19:57;13.40;99.90
52387;DHT22;38317;53.084;6.960;2023-05-10T10:22:23;13.40;99.90
52387;DHT22;38317;53.084;6.960;2023-05-10T10:24:50;13.50;99.90
52387;DHT22;38317;53.084;6.960;2023-05-10T10:27:21;13.50;99.90
52387;DHT22;38317;53.084;6.960;2023-05-10T10:35:17;13.80;99.90
52387;DHT22;38317;53.084;6.960;2023-05-10T10:37:44;13.80;99.90
52387;DHT22;38317;53.084;6.960;2023-05-10T10:40:37;13.90;99.90
52387;DHT22;38317;53.084;6.960;2023-05-10T10:43:25;14.10;99.90
52387;DHT22;38317;53.084;6.960;2023-05-10T10:46:14;14.10;99.90
52387;DHT22;38317;53.084;6.960;2023-05-10T10:48:41;14.20;99.90
52387;DHT22;38317;53.084;6.960;2023-05-10T10:51:13;14.20;99.90
52387;DHT22;38317;53.084;6.960;2023-05-10T10:53:40;14.20;99.90
52387;DHT22;38317;53.084;6.960;2023-05-10T10:56:12;14.20;99.90
52387;DHT22;38317;53.084;6.960;2023-05-10T10:58:41;14.40;99.90
52387;DHT22;38317;53.084;6.960;2023-05-10T11:01:33;14.50;99.90
52387;DHT22;38317;53.084;6.960;2023-05-10T11:06:33;14.60;99.90
52387;DHT22;38317;53.084;6.960;2023-05-10T11:09:11;14.50;99.90
52387;DHT22;38317;53.084;6.960;2023-05-10T11:11:49;14.50;99.90
52387;DHT22;38317;53.084;6.960;2023-05-10T11:14:20;14.40;99.90
52387;DHT22;38317;53.084;6.960;2023-05-10T11:16:45;14.40;99.90
52387;DHT22;38317;53.084;6.960;2023-05-10T11:19:13;14.40;99.90
52387;DHT22;38317;53.084;6.960;2023-05-10T11:24:29;14.50;99.90
52387;DHT22;38317;53.084;6.960;2023-05-10T11:26:55;14.80;99.90
52387;DHT22;38317;53.084;6.960;2023-05-10T11:29:22;14.70;99.90
52387;DHT22;38317;53.084;6.960;2023-05-10T11:31:48;14.90;99.90
52387;DHT22;38317;53.084;6.960;2023-05-10T11:34:29;14.90;99.90
52387;DHT22;38317;53.084;6.960;2023-05-10T11:37:04;15.00;99.90
52387;DHT22;38317;53.084;6.960;2023-05-10T11:39:31;15.00;99.90
52387;DHT22;38317;53.084;6.960;2023-05-10T11:41:57;14.90;99.90
52387;DHT22;38317;53.084;6.960;2023-05-10T11:44:33;14.90;99.90
52387;DHT22;38317;53.084;6.960;2023-05-10T11:47:02;14.80;99.90
52387;DHT22;38317;53.084;6.960;2023-05-10T11:49:28;14.80;99.90
52387;DHT22;38317;53.084;6.960;2023-05-10T11:52:04;14.80;99.90
52387;DHT22;38317;53.084;6.960;2023-05-10T11:54:30;14.70;99.90
52387;DHT22;38317;53.084;6.960;2023-05-10T11:56:56;14.70;99.90
52387;DHT22;38317;53.084;6.960;2023-05-10T11:59:22;14.60;99.90
52387;DHT22;38317;53.084;6.960;2023-05-10T12:01:48;14.60;99.90
52387;DHT22;38317;53.084;6.960;2023-05-10T12:04:14;14.60;99.90
52387;DHT22;38317;53.084;6.960;2023-05-10T12:06:40;14.50;99.90
52387;DHT22;38317;53.084;6.960;2023-05-10T12:09:07;14.50;99.90
52387;DHT22;38317;53.084;6.960;2023-05-10T12:11:37;14.40;99.90
52387;DHT22;38317;53.084;6.960;2023-05-10T12:14:04;14.40;99.90
52387;DHT22;38317;53.084;6.960;2023-05-10T12:16:30;14.40;99.90
52387;DHT22;38317;53.084;6.960;2023-05-10T12:18:58;14.40;99.90
52387;DHT22;38317;53.084;6.960;2023-05-10T12:21:24;14.50;99.90
52387;DHT22;38317;53.084;6.960;2023-05-10T12:23:52;14.50;99.90
52387;DHT22;38317;53.084;6.960;2023-05-10T12:26:18;14.60;99.90
52387;DHT22;38317;53.084;6.960;2023-05-10T12:28:43;14.70;99.90
52387;DHT22;38317;53.084;6.960;2023-05-10T12:31:09;14.70;99.90
52387;DHT22;38317;53.084;6.960;2023-05-10T12:33:40;14.70;99.90
52387;DHT22;38317;53.084;6.960;2023-05-10T12:36:11;14.70;99.90
52387;DHT22;38317;53.084;6.960;2023-05-10T12:38:40;14.60;99.90
52387;DHT22;38317;53.084;6.960;2023-05-10T12:41:18;14.50;99.90
52387;DHT22;38317;53.084;6.960;2023-05-10T12:43:44;15.40;99.90
52387;DHT22;38317;53.084;6.960;2023-05-10T12:46:17;14.50;99.90
52387;DHT22;38317;53.084;6.960;2023-05-10T12:48:44;14.40;99.90
52387;DHT22;38317;53.084;6.960;2023-05-10T12:51:11;14.40;99.90
52387;DHT22;38317;53.084;6.960;2023-05-10T12:53:40;14.40;99.90
52387;DHT22;38317;53.084;6.960;2023-05-10T12:56:06;14.40;99.90
52387;DHT22;38317;53.084;6.960;2023-05-10T12:58:32;14.40;99.90
52387;DHT22;38317;53.084;6.960;2023-05-10T13:01:01;14.40;99.90
52387;DHT22;38317;53.084;6.960;2023-05-10T13:03:27;14.50;99.90
52387;DHT22;38317;53.084;6.960;2023-05-10T13:05:53;14.50;99.90
52387;DHT22;38317;53.084;6.960;2023-05-10T13:08:19;14.60;99.90
52387;DHT22;38317;53.084;6.960;2023-05-10T13:10:44;14.80;99.90
52387;DHT22;38317;53.084;6.960;2023-05-10T13:13:10;14.90;99.90
52387;DHT22;38317;53.084;6.960;2023-05-10T13:15:36;15.10;99.90
52387;DHT22;38317;53.084;6.960;2023-05-10T13:18:02;15.20;99.90
52387;DHT22;38317;53.084;6.960;2023-05-10T13:20:27;15.30;99.90
52387;DHT22;38317;53.084;6.960;2023-05-10T13:22:53;15.30;99.90
52387;DHT22;38317;53.084;6.960;2023-05-10T13:25:19;15.30;99.90
52387;DHT22;38317;53.084;6.960;2023-05-10T13:27:45;15.20;99.90
52387;DHT22;38317;53.084;6.960;2023-05-10T13:30:11;15.20;99.90
52387;DHT22;38317;53.084;6.960;2023-05-10T13:32:37;15.20;99.90
52387;DHT22;38317;53.084;6.960;2023-05-10T13:35:03;15.20;99.90
52387;DHT22;38317;53.084;6.960;2023-05-10T13:37:29;15.20;99.90
52387;DHT22;38317;53.084;6.960;2023-05-10T13:39:55;15.20;99.90
52387;DHT22;38317;53.084;6.960;2023-05-10T13:42:22;15.10;99.90
52387;DHT22;38317;53.084;6.960;2023-05-10T13:44:49;15.10;99.90
52387;DHT22;38317;53.084;6.960;2023-05-10T13:47:14;15.10;99.90
52387;DHT22;38317;53.084;6.960;2023-05-10T13:49:40;15.00;99.90
52387;DHT22;38317;53.084;6.960;2023-05-10T13:52:08;15.00;99.90
52387;DHT22;38317;53.084;6.960;2023-05-10T13:54:36;15.00;99.90
52387;DHT22;38317;53.084;6.960;2023-05-10T13:57:03;15.00;99.90
52387;DHT22;38317;53.084;6.960;2023-05-10T13:59:30;14.70;99.90
52387;DHT22;38317;53.084;6.960;2023-05-10T14:01:57;14.90;99.90
52387;DHT22;38317;53.084;6.960;2023-05-10T14:04:24;14.90;99.90
52387;DHT22;38317;53.084;6.960;2023-05-10T14:06:49;14.90;99.90
52387;DHT22;38317;53.084;6.960;2023-05-10T14:09:16;14.80;99.90
52387;DHT22;38317;53.084;6.960;2023-05-10T14:11:47;14.80;99.90
52387;DHT22;38317;53.084;6.960;2023-05-10T14:14:16;14.80;99.90
52387;DHT22;38317;53.084;6.960;2023-05-10T14:16:44;15.20;99.90
52387;DHT22;38317;53.084;6.960;2023-05-10T14:19:10;14.90;99.90
52387;DHT22;38317;53.084;6.960;2023-05-10T14:21:36;14.90;99.90
52387;DHT22;38317;53.084;6.960;2023-05-10T14:24:02;14.80;99.90
52387;DHT22;38317;53.084;6.960;2023-05-10T14:26:28;15.00;99.90
52387;DHT22;38317;53.084;6.960;2023-05-10T14:28:54;15.10;99.90
52387;DHT22;38317;53.084;6.960;2023-05-10T14:31:19;15.10;99.90
52387;DHT22;38317;53.084;6.960;2023-05-10T14:33:50;15.10;99.90
52387;DHT22;38317;53.084;6.960;2023-05-10T14:36:17;15.10;99.90
52387;DHT22;38317;53.084;6.960;2023-05-10T14:38:43;15.20;99.90
52387;DHT22;38317;53.084;6.960;2023-05-10T14:41:09;15.10;99.90
52387;DHT22;38317;53.084;6.960;2023-05-10T14:43:39;15.20;99.90
52387;DHT22;38317;53.084;6.960;2023-05-10T14:46:05;15.40;99.90
52387;DHT22;38317;53.084;6.960;2023-05-10T14:48:31;16.40;99.90
52387;DHT22;38317;53.084;6.960;2023-05-10T14:50:56;15.30;99.90
52387;DHT22;38317;53.084;6.960;2023-05-10T14:53:23;16.50;99.90
52387;DHT22;38317;53.084;6.960;2023-05-10T14:55:49;15.20;99.90
52387;DHT22;38317;53.084;6.960;2023-05-10T14:58:15;15.20;99.90
52387;DHT22;38317;53.084;6.960;2023-05-10T15:00:40;15.20;99.90
52387;DHT22;38317;53.084;6.960;2023-05-10T15:03:06;15.20;99.90
52387;DHT22;38317;53.084;6.960;2023-05-10T15:05:32;15.20;99.90
52387;DHT22;38317;53.084;6.960;2023-05-10T15:07:57;15.20;99.90
52387;DHT22;38317;53.084;6.960;2023-05-10T15:10:23;15.20;99.90
52387;DHT22;38317;53.084;6.960;2023-05-10T15:12:50;15.20;99.90
52387;DHT22;38317;53.084;6.960;2023-05-10T15:15:16;15.90;99.90
52387;DHT22;38317;53.084;6.960;2023-05-10T15:17:41;15.30;99.90
52387;DHT22;38317;53.084;6.960;2023-05-10T15:20:07;15.20;99.90
52387;DHT22;38317;53.084;6.960;2023-05-10T15:22:33;15.20;99.90
52387;DHT22;38317;53.084;6.960;2023-05-10T15:24:59;15.10;99.90
52387;DHT22;38317;53.084;6.960;2023-05-10T15:27:25;15.10;99.90
52387;DHT22;38317;53.084;6.960;2023-05-10T15:29:51;15.10;99.90
52387;DHT22;38317;53.084;6.960;2023-05-10T15:32:17;15.10;99.90
52387;DHT22;38317;53.084;6.960;2023-05-10T15:34:43;15.10;99.90
52387;DHT22;38317;53.084;6.960;2023-05-10T15:37:08;15.10;99.90
52387;DHT22;38317;53.084;6.960;2023-05-10T15:39:35;15.10;99.90
52387;DHT22;38317;53.084;6.960;2023-05-10T15:42:00;15.10;99.90
52387;DHT22;38317;53.084;6.960;2023-05-10T15:44:26;15.20;99.90
52387;DHT22;38317;53.084;6.960;2023-05-10T15:46:52;15.20;99.90
52387;DHT22;38317;53.084;6.960;2023-05-10T15:49:18;15.20;99.90
52387;DHT22;38317;53.084;6.960;2023-05-10T15:51:44;15.10;99.90
52387;DHT22;38317;53.084;6.960;2023-05-10T15:54:09;15.10;99.90
52387;DHT22;38317;53.084;6.960;2023-05-10T15:56:35;15.10;99.90